Wetterdaten: Woche 22.09.25 - 28.09.25 (KW39)
Datum Zeit Temp. I. Temp. A. Feuchte I. Feuchte A. Luftdruck Regen Wind Richtung Sonnenschein Solar Taupunkt Windchill Windböen
22.09.2025 00:00 21,9 °C 13,5 °C 64 % 89 % 1016,9 hPa 0,4 l/m² 4,7 km/h (1 Bft) NW 0,00 h 0 W/m² 11,8 °C 13,4 °C 9,1 km/h (2 Bft)
22.09.2025 01:00 21,9 °C 13,0 °C 64 % 89 % 1017,2 hPa 0,2 l/m² 2,6 km/h (1 Bft) W-NW 0,00 h 0 W/m² 11,2 °C 13,0 °C 6,5 km/h (2 Bft)
22.09.2025 02:00 21,9 °C 12,6 °C 63 % 89 % 1017,1 hPa 0,2 l/m² 3,5 km/h (1 Bft) W-NW 0,00 h 0 W/m² 10,9 °C 12,6 °C 6,9 km/h (2 Bft)
22.09.2025 03:00 21,9 °C 12,3 °C 63 % 90 % 1017,3 hPa 0,2 l/m² 1,3 km/h (1 Bft) NW 0,00 h 0 W/m² 10,7 °C 12,3 °C 2,7 km/h (1 Bft)
22.09.2025 04:00 21,8 °C 12,1 °C 63 % 90 % 1017,5 hPa 0,0 l/m² 0,6 km/h (0 Bft) W-NW 0,00 h 0 W/m² 10,5 °C 12,1 °C 1,5 km/h (1 Bft)
22.09.2025 05:00 21,8 °C 11,8 °C 63 % 90 % 1017,6 hPa 0,0 l/m² 2,4 km/h (1 Bft) W-NW 0,00 h 0 W/m² 10,2 °C 11,8 °C 4,8 km/h (1 Bft)
22.09.2025 06:00 21,8 °C 11,6 °C 63 % 90 % 1017,6 hPa 0,0 l/m² 4,3 km/h (1 Bft) N-NW 0,00 h 0 W/m² 10,0 °C 11,6 °C 6,7 km/h (2 Bft)
22.09.2025 07:00 21,7 °C 11,3 °C 62 % 90 % 1018,2 hPa 0,0 l/m² 6,2 km/h (2 Bft) N-NW 0,00 h 14 W/m² 9,7 °C 10,9 °C 9,6 km/h (2 Bft)
22.09.2025 08:00 21,7 °C 11,4 °C 62 % 89 % 1018,8 hPa 0,0 l/m² 6,8 km/h (2 Bft) N-NW 0,80 h 71 W/m² 9,6 °C 10,8 °C 10,4 km/h (2 Bft)
22.09.2025 09:00 21,7 °C 12,0 °C 62 % 87 % 1019,3 hPa 0,0 l/m² 7,2 km/h (2 Bft) N-NW 1,00 h 146 W/m² 9,9 °C 11,2 °C 11,2 km/h (2 Bft)
22.09.2025 10:00 21,6 °C 12,8 °C 62 % 82 % 1019,9 hPa 0,0 l/m² 9,6 km/h (2 Bft) N-NW 1,00 h 187 W/m² 9,9 °C 11,0 °C 14,7 km/h (3 Bft)
22.09.2025 11:00 21,6 °C 13,4 °C 62 % 80 % 1019,8 hPa 0,0 l/m² 10,8 km/h (2 Bft) N-NW 1,00 h 294 W/m² 10,0 °C 11,0 °C 16,1 km/h (3 Bft)
22.09.2025 12:00 21,7 °C 14,3 °C 62 % 77 % 1019,9 hPa 0,0 l/m² 12,5 km/h (2 Bft) N-NW 1,00 h 351 W/m² 10,3 °C 11,4 °C 19,2 km/h (3 Bft)
22.09.2025 13:00 21,6 °C 14,7 °C 62 % 75 % 1019,9 hPa 0,0 l/m² 11,5 km/h (2 Bft) N-NW 1,00 h 255 W/m² 10,4 °C 12,2 °C 18,0 km/h (3 Bft)
22.09.2025 14:00 21,6 °C 14,7 °C 62 % 74 % 1020,2 hPa 0,0 l/m² 11,2 km/h (2 Bft) N 1,00 h 185 W/m² 10,0 °C 12,4 °C 16,9 km/h (3 Bft)
22.09.2025 15:00 21,4 °C 14,7 °C 62 % 72 % 1020,0 hPa 0,0 l/m² 11,5 km/h (2 Bft) N 1,00 h 151 W/m² 9,7 °C 12,2 °C 18,0 km/h (3 Bft)
22.09.2025 16:00 21,4 °C 14,5 °C 62 % 69 % 1019,7 hPa 0,0 l/m² 11,5 km/h (2 Bft) N 1,00 h 108 W/m² 8,9 °C 12,0 °C 17,7 km/h (3 Bft)
22.09.2025 17:00 21,4 °C 14,5 °C 62 % 70 % 1019,8 hPa 0,0 l/m² 11,2 km/h (2 Bft) N 1,00 h 122 W/m² 9,0 °C 12,0 °C 17,0 km/h (3 Bft)
22.09.2025 18:00 21,5 °C 14,3 °C 62 % 70 % 1020,1 hPa 0,0 l/m² 7,9 km/h (2 Bft) N-NO 0,20 h 42 W/m² 8,9 °C 13,3 °C 13,1 km/h (3 Bft)
22.09.2025 19:00 21,5 °C 13,4 °C 61 % 74 % 1020,5 hPa 0,0 l/m² 2,0 km/h (1 Bft) N 0,00 h 8 W/m² 8,9 °C 13,4 °C 3,8 km/h (1 Bft)
22.09.2025 20:00 21,6 °C 12,3 °C 62 % 79 % 1021,0 hPa 0,0 l/m² 0,1 km/h (0 Bft) N-NO 0,00 h 0 W/m² 8,7 °C 12,3 °C 0,4 km/h (0 Bft)
22.09.2025 21:00 21,6 °C 12,0 °C 61 % 81 % 1021,4 hPa 0,0 l/m² 0,9 km/h (0 Bft) N 0,00 h 0 W/m² 8,9 °C 12,0 °C 1,9 km/h (1 Bft)
22.09.2025 22:00 21,4 °C 11,8 °C 61 % 82 % 1021,6 hPa 0,0 l/m² 2,8 km/h (1 Bft) N-NW 0,00 h 0 W/m² 8,8 °C 11,8 °C 4,4 km/h (1 Bft)
22.09.2025 23:00 21,3 °C 11,9 °C 62 % 78 % 1021,9 hPa 0,0 l/m² 4,3 km/h (1 Bft) N-NW 0,00 h 0 W/m² 8,2 °C 11,9 °C 7,0 km/h (2 Bft)
23.09.2025 00:00 21,3 °C 11,6 °C 61 % 75 % 1022,0 hPa 0,0 l/m² 4,2 km/h (1 Bft) N-NW 0,00 h 0 W/m² 7,3 °C 11,5 °C 7,1 km/h (2 Bft)
23.09.2025 01:00 21,2 °C 10,0 °C 61 % 78 % 1022,1 hPa 0,0 l/m² 2,3 km/h (1 Bft) W-NW 0,00 h 0 W/m² 6,3 °C 10,0 °C 4,7 km/h (1 Bft)
23.09.2025 02:00 21,1 °C 8,4 °C 61 % 82 % 1022,3 hPa 0,0 l/m² 2,0 km/h (1 Bft) W-NW 0,00 h 0 W/m² 5,5 °C 8,4 °C 4,6 km/h (1 Bft)
23.09.2025 03:00 21,1 °C 7,7 °C 61 % 84 % 1022,5 hPa 0,0 l/m² 2,7 km/h (1 Bft) W 0,00 h 0 W/m² 5,2 °C 7,7 °C 5,4 km/h (1 Bft)
23.09.2025 04:00 21,0 °C 7,5 °C 61 % 85 % 1022,7 hPa 0,0 l/m² 2,4 km/h (1 Bft) O-NO 0,00 h 0 W/m² 5,1 °C 7,5 °C 5,3 km/h (1 Bft)
23.09.2025 05:00 21,0 °C 7,2 °C 62 % 85 % 1022,9 hPa 0,0 l/m² 1,4 km/h (1 Bft) W-NW 0,00 h 0 W/m² 4,8 °C 7,2 °C 3,8 km/h (1 Bft)
23.09.2025 06:00 20,9 °C 6,7 °C 61 % 85 % 1023,2 hPa 0,0 l/m² 1,1 km/h (1 Bft) S-SO 0,00 h 0 W/m² 4,4 °C 6,7 °C 2,7 km/h (1 Bft)
23.09.2025 07:00 20,8 °C 6,4 °C 59 % 86 % 1023,8 hPa 0,0 l/m² 0,8 km/h (0 Bft) SW 0,18 h 33 W/m² 4,3 °C 6,4 °C 1,4 km/h (1 Bft)
23.09.2025 08:00 20,8 °C 8,2 °C 59 % 87 % 1024,2 hPa 0,0 l/m² 3,4 km/h (1 Bft) SW 1,00 h 179 W/m² 6,2 °C 8,2 °C 5,3 km/h (1 Bft)
23.09.2025 09:00 20,8 °C 11,3 °C 59 % 80 % 1024,5 hPa 0,0 l/m² 4,6 km/h (1 Bft) SW 1,00 h 356 W/m² 8,0 °C 11,1 °C 8,4 km/h (2 Bft)
23.09.2025 10:00 20,9 °C 14,6 °C 59 % 69 % 1024,7 hPa 0,0 l/m² 6,4 km/h (2 Bft) N-NW 1,00 h 507 W/m² 8,9 °C 14,0 °C 10,2 km/h (2 Bft)
23.09.2025 11:00 20,9 °C 16,0 °C 59 % 64 % 1024,8 hPa 0,0 l/m² 7,8 km/h (2 Bft) N-NW 1,00 h 600 W/m² 9,2 °C 15,0 °C 12,8 km/h (3 Bft)
23.09.2025 12:00 20,9 °C 16,9 °C 59 % 61 % 1024,6 hPa 0,0 l/m² 7,7 km/h (2 Bft) N-NO 1,00 h 644 W/m² 9,4 °C 16,1 °C 13,7 km/h (3 Bft)
23.09.2025 13:00 20,9 °C 17,6 °C 59 % 58 % 1024,4 hPa 0,0 l/m² 8,5 km/h (2 Bft) N-NW 1,00 h 634 W/m² 9,2 °C 16,5 °C 14,0 km/h (3 Bft)
23.09.2025 14:00 20,8 °C 18,4 °C 60 % 54 % 1024,0 hPa 0,0 l/m² 7,6 km/h (2 Bft) N-NO 1,00 h 621 W/m² 8,9 °C 17,6 °C 12,8 km/h (3 Bft)
23.09.2025 15:00 20,8 °C 18,0 °C 60 % 54 % 1023,5 hPa 0,0 l/m² 9,6 km/h (2 Bft) N 1,00 h 302 W/m² 8,6 °C 16,6 °C 15,2 km/h (3 Bft)
23.09.2025 16:00 20,7 °C 16,4 °C 60 % 58 % 1023,4 hPa 0,0 l/m² 8,7 km/h (2 Bft) N 1,00 h 124 W/m² 8,0 °C 15,3 °C 14,4 km/h (3 Bft)
23.09.2025 17:00 20,7 °C 16,2 °C 60 % 58 % 1023,4 hPa 0,0 l/m² 6,5 km/h (2 Bft) NO 0,88 h 86 W/m² 7,9 °C 15,7 °C 11,3 km/h (2 Bft)
23.09.2025 18:00 20,7 °C 15,7 °C 60 % 61 % 1023,4 hPa 0,0 l/m² 5,6 km/h (2 Bft) NO 0,45 h 45 W/m² 8,2 °C 15,6 °C 8,9 km/h (2 Bft)
23.09.2025 19:00 20,7 °C 14,2 °C 60 % 66 % 1023,6 hPa 0,0 l/m² 2,9 km/h (1 Bft) N-NO 0,00 h 7 W/m² 8,0 °C 14,2 °C 4,6 km/h (1 Bft)
23.09.2025 20:00 20,8 °C 12,7 °C 61 % 71 % 1024,1 hPa 0,0 l/m² 4,9 km/h (1 Bft) N 0,00 h 0 W/m² 7,7 °C 12,7 °C 7,0 km/h (2 Bft)
23.09.2025 21:00 20,7 °C 11,9 °C 60 % 74 % 1024,5 hPa 0,0 l/m² 5,4 km/h (1 Bft) N 0,00 h 0 W/m² 7,5 °C 11,8 °C 8,3 km/h (2 Bft)
23.09.2025 22:00 20,7 °C 11,1 °C 59 % 75 % 1024,9 hPa 0,0 l/m² 6,0 km/h (2 Bft) N-NO 0,00 h 0 W/m² 6,8 °C 10,9 °C 10,1 km/h (2 Bft)
23.09.2025 23:00 20,7 °C 11,2 °C 60 % 75 % 1025,1 hPa 0,0 l/m² 4,9 km/h (1 Bft) N-NO 0,00 h 0 W/m² 6,9 °C 11,0 °C 8,7 km/h (2 Bft)
24.09.2025 00:00 20,6 °C 11,1 °C 60 % 75 % 1025,2 hPa 0,0 l/m² 6,5 km/h (2 Bft) N-NO 0,00 h 0 W/m² 6,9 °C 10,6 °C 12,4 km/h (2 Bft)
24.09.2025 01:00 20,6 °C 10,4 °C 60 % 77 % 1025,3 hPa 0,0 l/m² 6,2 km/h (2 Bft) NO 0,00 h 0 W/m² 6,6 °C 10,0 °C 12,3 km/h (2 Bft)
24.09.2025 02:00 20,4 °C 9,5 °C 60 % 81 % 1025,2 hPa 0,0 l/m² 5,9 km/h (2 Bft) NO 0,00 h 0 W/m² 6,3 °C 9,2 °C 10,7 km/h (2 Bft)
24.09.2025 03:00 20,4 °C 9,0 °C 60 % 82 % 1025,3 hPa 0,0 l/m² 5,5 km/h (2 Bft) NO 0,00 h 0 W/m² 6,2 °C 8,8 °C 10,5 km/h (2 Bft)
24.09.2025 04:00 20,3 °C 8,7 °C 60 % 84 % 1025,5 hPa 0,0 l/m² 6,5 km/h (2 Bft) NO 0,00 h 0 W/m² 6,1 °C 8,1 °C 12,5 km/h (2 Bft)
24.09.2025 05:00 20,3 °C 8,3 °C 60 % 85 % 1025,5 hPa 0,0 l/m² 4,9 km/h (1 Bft) NO 0,00 h 0 W/m² 6,0 °C 8,1 °C 9,9 km/h (2 Bft)
24.09.2025 06:00 20,3 °C 8,0 °C 60 % 85 % 1025,5 hPa 0,0 l/m² 3,5 km/h (1 Bft) NO 0,00 h 0 W/m² 5,6 °C 7,9 °C 7,2 km/h (2 Bft)
24.09.2025 07:00 20,2 °C 7,9 °C 59 % 87 % 1025,5 hPa 0,0 l/m² 6,7 km/h (2 Bft) NO 0,23 h 34 W/m² 5,8 °C 6,9 °C 13,0 km/h (3 Bft)
24.09.2025 08:00 20,2 °C 9,3 °C 59 % 84 % 1025,6 hPa 0,0 l/m² 8,8 km/h (2 Bft) NO 1,00 h 187 W/m² 6,8 °C 7,6 °C 16,2 km/h (3 Bft)
24.09.2025 09:00 20,2 °C 11,6 °C 59 % 79 % 1026,0 hPa 0,0 l/m² 11,7 km/h (2 Bft) NO 1,00 h 373 W/m² 8,0 °C 8,6 °C 19,8 km/h (4 Bft)
24.09.2025 10:00 20,3 °C 14,0 °C 59 % 70 % 1026,0 hPa 0,0 l/m² 14,1 km/h (3 Bft) NO 1,00 h 508 W/m² 8,7 °C 10,5 °C 22,4 km/h (4 Bft)
24.09.2025 11:00 20,4 °C 16,0 °C 59 % 63 % 1025,7 hPa 0,0 l/m² 15,8 km/h (3 Bft) NO 1,00 h 624 W/m² 9,0 °C 12,2 °C 25,0 km/h (4 Bft)
24.09.2025 12:00 20,4 °C 16,7 °C 59 % 60 % 1025,4 hPa 0,0 l/m² 18,6 km/h (3 Bft) NO 1,00 h 674 W/m² 9,0 °C 12,4 °C 29,5 km/h (5 Bft)
24.09.2025 13:00 20,3 °C 16,7 °C 59 % 58 % 1025,1 hPa 0,0 l/m² 19,1 km/h (3 Bft) NO 1,00 h 452 W/m² 8,4 °C 12,2 °C 29,7 km/h (5 Bft)
24.09.2025 14:00 20,2 °C 16,2 °C 59 % 58 % 1024,9 hPa 0,0 l/m² 16,5 km/h (3 Bft) NO 1,00 h 310 W/m² 8,0 °C 12,3 °C 27,8 km/h (5 Bft)
24.09.2025 15:00 20,2 °C 16,9 °C 59 % 55 % 1024,4 hPa 0,0 l/m² 16,6 km/h (3 Bft) NO 1,00 h 350 W/m² 7,8 °C 13,2 °C 27,3 km/h (5 Bft)
24.09.2025 16:00 20,2 °C 16,4 °C 59 % 54 % 1023,8 hPa 0,0 l/m² 15,7 km/h (3 Bft) NO 1,00 h 139 W/m² 7,1 °C 12,8 °C 25,1 km/h (4 Bft)
24.09.2025 17:00 20,1 °C 15,7 °C 59 % 54 % 1023,5 hPa 0,0 l/m² 16,1 km/h (3 Bft) NO 0,33 h 49 W/m² 6,5 °C 11,9 °C 26,2 km/h (4 Bft)
24.09.2025 18:00 20,1 °C 15,2 °C 59 % 54 % 1023,4 hPa 0,0 l/m² 14,7 km/h (3 Bft) NO 0,00 h 16 W/m² 6,0 °C 11,7 °C 24,4 km/h (4 Bft)
24.09.2025 19:00 20,1 °C 14,0 °C 60 % 57 % 1023,5 hPa 0,0 l/m² 10,4 km/h (2 Bft) NO 0,00 h 0 W/m² 5,5 °C 11,9 °C 18,3 km/h (3 Bft)
24.09.2025 20:00 20,1 °C 13,1 °C 61 % 61 % 1023,7 hPa 0,0 l/m² 8,9 km/h (2 Bft) NO 0,00 h 0 W/m² 5,6 °C 11,6 °C 15,9 km/h (3 Bft)
24.09.2025 21:00 20,1 °C 12,3 °C 61 % 62 % 1023,7 hPa 0,0 l/m² 8,9 km/h (2 Bft) NO 0,00 h 0 W/m² 5,3 °C 10,8 °C 15,7 km/h (3 Bft)
24.09.2025 22:00 20,1 °C 11,8 °C 61 % 62 % 1023,7 hPa 0,0 l/m² 10,2 km/h (2 Bft) NO 0,00 h 0 W/m² 4,9 °C 9,6 °C 17,9 km/h (3 Bft)
24.09.2025 23:00 20,1 °C 11,5 °C 61 % 62 % 1023,6 hPa 0,0 l/m² 11,5 km/h (2 Bft) NO 0,00 h 0 W/m² 4,5 °C 8,5 °C 20,6 km/h (4 Bft)
25.09.2025 00:00 20,0 °C 10,9 °C 61 % 64 % 1023,4 hPa 0,0 l/m² 10,5 km/h (2 Bft) NO 0,00 h 0 W/m² 4,3 °C 8,4 °C 19,1 km/h (3 Bft)
25.09.2025 01:00 19,9 °C 10,7 °C 61 % 64 % 1023,2 hPa 0,0 l/m² 10,8 km/h (2 Bft) N-NO 0,00 h 0 W/m² 4,2 °C 8,1 °C 19,4 km/h (3 Bft)
25.09.2025 02:00 19,9 °C 10,7 °C 61 % 65 % 1023,4 hPa 0,0 l/m² 9,4 km/h (2 Bft) NO 0,00 h 0 W/m² 4,3 °C 8,8 °C 16,9 km/h (3 Bft)
25.09.2025 03:00 19,8 °C 10,7 °C 61 % 65 % 1023,5 hPa 0,0 l/m² 8,0 km/h (2 Bft) N-NO 0,00 h 0 W/m² 4,4 °C 9,5 °C 14,3 km/h (3 Bft)
25.09.2025 04:00 19,8 °C 10,5 °C 61 % 67 % 1023,3 hPa 0,0 l/m² 8,9 km/h (2 Bft) NO 0,00 h 0 W/m² 4,6 °C 8,8 °C 15,8 km/h (3 Bft)
25.09.2025 05:00 19,8 °C 10,2 °C 61 % 68 % 1023,2 hPa 0,0 l/m² 8,5 km/h (2 Bft) NO 0,00 h 0 W/m² 4,6 °C 8,7 °C 14,9 km/h (3 Bft)
25.09.2025 06:00 19,9 °C 9,6 °C 61 % 72 % 1023,2 hPa 0,0 l/m² 7,9 km/h (2 Bft) N-NO 0,00 h 0 W/m² 4,7 °C 8,3 °C 13,6 km/h (3 Bft)
25.09.2025 07:00 20,0 °C 9,3 °C 59 % 72 % 1023,2 hPa 0,0 l/m² 10,1 km/h (2 Bft) NO 0,00 h 9 W/m² 4,5 °C 6,8 °C 17,3 km/h (3 Bft)
25.09.2025 08:00 20,0 °C 9,3 °C 59 % 72 % 1023,4 hPa 0,0 l/m² 10,3 km/h (2 Bft) NO 0,00 h 16 W/m² 4,5 °C 6,8 °C 17,5 km/h (3 Bft)
25.09.2025 09:00 20,0 °C 9,3 °C 59 % 74 % 1023,6 hPa 0,0 l/m² 10,3 km/h (2 Bft) NO 0,13 h 47 W/m² 4,9 °C 6,8 °C 18,2 km/h (3 Bft)
25.09.2025 10:00 20,1 °C 9,9 °C 59 % 75 % 1023,4 hPa 0,0 l/m² 10,9 km/h (2 Bft) O-NO 1,00 h 98 W/m² 5,6 °C 7,2 °C 18,2 km/h (3 Bft)
25.09.2025 11:00 20,1 °C 10,0 °C 59 % 77 % 1023,5 hPa 1,2 l/m² 15,2 km/h (3 Bft) O-NO 0,77 h 64 W/m² 6,1 °C 5,3 °C 24,0 km/h (4 Bft)
25.09.2025 12:00 20,1 °C 9,0 °C 59 % 84 % 1023,6 hPa 1,6 l/m² 14,0 km/h (3 Bft) O-NO 0,53 h 56 W/m² 6,4 °C 4,5 °C 24,2 km/h (4 Bft)
25.09.2025 13:00 20,1 °C 9,1 °C 59 % 86 % 1023,8 hPa 0,4 l/m² 11,5 km/h (2 Bft) O-NO 0,93 h 85 W/m² 6,9 °C 5,8 °C 20,3 km/h (4 Bft)
25.09.2025 14:00 20,2 °C 9,6 °C 59 % 84 % 1023,6 hPa 0,0 l/m² 10,9 km/h (2 Bft) NO 0,53 h 58 W/m² 7,1 °C 6,8 °C 19,6 km/h (3 Bft)
25.09.2025 15:00 20,2 °C 10,2 °C 59 % 82 % 1023,6 hPa 0,2 l/m² 12,8 km/h (3 Bft) O-NO 0,30 h 54 W/m² 7,4 °C 6,5 °C 21,4 km/h (4 Bft)
25.09.2025 16:00 20,2 °C 10,1 °C 59 % 83 % 1023,8 hPa 0,2 l/m² 14,0 km/h (3 Bft) O-NO 0,00 h 25 W/m² 7,3 °C 5,8 °C 23,6 km/h (4 Bft)
25.09.2025 17:00 20,2 °C 10,3 °C 59 % 81 % 1024,0 hPa 0,0 l/m² 15,3 km/h (3 Bft) O-NO 0,00 h 17 W/m² 7,2 °C 5,4 °C 24,6 km/h (4 Bft)
25.09.2025 18:00 20,3 °C 10,2 °C 58 % 83 % 1024,3 hPa 0,0 l/m² 10,9 km/h (2 Bft) O-NO 0,00 h 10 W/m² 7,5 °C 7,4 °C 19,6 km/h (3 Bft)
25.09.2025 19:00 20,4 °C 10,2 °C 60 % 83 % 1024,5 hPa 0,4 l/m² 9,4 km/h (2 Bft) NO 0,00 h 0 W/m² 7,5 °C 8,2 °C 17,1 km/h (3 Bft)
25.09.2025 20:00 20,7 °C 9,9 °C 60 % 85 % 1024,5 hPa 0,0 l/m² 7,7 km/h (2 Bft) O-NO 0,00 h 0 W/m² 7,4 °C 8,9 °C 15,2 km/h (3 Bft)
25.09.2025 21:00 20,8 °C 10,0 °C 60 % 83 % 1024,5 hPa 0,0 l/m² 7,0 km/h (2 Bft) NO 0,00 h 0 W/m² 7,3 °C 9,2 °C 12,3 km/h (2 Bft)
25.09.2025 22:00 20,8 °C 10,3 °C 60 % 81 % 1024,5 hPa 0,0 l/m² 9,1 km/h (2 Bft) O-NO 0,00 h 0 W/m² 7,2 °C 8,5 °C 14,7 km/h (3 Bft)
25.09.2025 23:00 20,6 °C 10,1 °C 60 % 82 % 1024,7 hPa 0,0 l/m² 7,9 km/h (2 Bft) O-NO 0,00 h 0 W/m² 7,2 °C 8,8 °C 13,0 km/h (3 Bft)
26.09.2025 00:00 20,6 °C 10,1 °C 60 % 81 % 1024,7 hPa 0,0 l/m² 7,9 km/h (2 Bft) O-NO 0,00 h 0 W/m² 7,0 °C 9,0 °C 14,2 km/h (3 Bft)
26.09.2025 01:00 20,4 °C 10,1 °C 60 % 82 % 1024,7 hPa 0,0 l/m² 5,1 km/h (1 Bft) O-NO 0,00 h 0 W/m² 7,1 °C 10,0 °C 9,0 km/h (2 Bft)
26.09.2025 02:00 20,4 °C 10,1 °C 60 % 81 % 1024,5 hPa 0,0 l/m² 3,8 km/h (1 Bft) O-NO 0,00 h 0 W/m² 7,0 °C 10,1 °C 7,1 km/h (2 Bft)
26.09.2025 03:00 20,5 °C 10,1 °C 60 % 82 % 1024,4 hPa 0,0 l/m² 4,2 km/h (1 Bft) O-NO 0,00 h 0 W/m² 7,1 °C 10,1 °C 7,3 km/h (2 Bft)
26.09.2025 04:00 20,4 °C 10,1 °C 60 % 82 % 1024,2 hPa 0,0 l/m² 5,1 km/h (1 Bft) O-NO 0,00 h 0 W/m² 7,1 °C 10,0 °C 8,4 km/h (2 Bft)
26.09.2025 05:00 20,5 °C 10,0 °C 60 % 83 % 1024,2 hPa 0,0 l/m² 4,7 km/h (1 Bft) O-NO 0,00 h 0 W/m² 7,2 °C 9,9 °C 8,7 km/h (2 Bft)
26.09.2025 06:00 20,4 °C 10,1 °C 60 % 83 % 1024,3 hPa 0,0 l/m² 4,4 km/h (1 Bft) O-NO 0,00 h 0 W/m² 7,3 °C 10,0 °C 8,1 km/h (2 Bft)
26.09.2025 07:00 20,4 °C 10,2 °C 60 % 82 % 1024,3 hPa 0,0 l/m² 2,8 km/h (1 Bft) NO 0,00 h 19 W/m² 7,3 °C 10,2 °C 5,8 km/h (2 Bft)
26.09.2025 08:00 20,4 °C 10,5 °C 60 % 80 % 1024,4 hPa 0,0 l/m² 5,5 km/h (2 Bft) O-NO 0,40 h 51 W/m² 7,3 °C 10,3 °C 9,9 km/h (2 Bft)
26.09.2025 09:00 20,5 °C 11,0 °C 60 % 78 % 1024,8 hPa 0,0 l/m² 6,6 km/h (2 Bft) O-NO 0,65 h 68 W/m² 7,3 °C 10,4 °C 11,5 km/h (2 Bft)
26.09.2025 10:00 20,6 °C 12,0 °C 60 % 76 % 1024,6 hPa 0,0 l/m² 9,6 km/h (2 Bft) O-NO 1,00 h 243 W/m² 7,8 °C 10,0 °C 16,5 km/h (3 Bft)
26.09.2025 11:00 20,6 °C 12,9 °C 59 % 74 % 1024,7 hPa 0,0 l/m² 11,3 km/h (2 Bft) O-NO 1,02 h 203 W/m² 8,4 °C 10,3 °C 18,4 km/h (3 Bft)
26.09.2025 12:00 20,6 °C 13,4 °C 59 % 75 % 1024,6 hPa 0,0 l/m² 9,2 km/h (2 Bft) NO 1,00 h 219 W/m² 8,9 °C 11,8 °C 15,8 km/h (3 Bft)
26.09.2025 13:00 20,6 °C 14,4 °C 59 % 73 % 1024,0 hPa 0,0 l/m² 11,6 km/h (2 Bft) NO 1,00 h 385 W/m² 9,6 °C 11,8 °C 18,0 km/h (3 Bft)
26.09.2025 14:00 20,7 °C 14,8 °C 59 % 72 % 1023,8 hPa 0,0 l/m² 9,9 km/h (2 Bft) O-NO 1,00 h 164 W/m² 9,7 °C 12,9 °C 16,0 km/h (3 Bft)
26.09.2025 15:00 20,8 °C 14,2 °C 59 % 74 % 1023,7 hPa 0,0 l/m² 8,7 km/h (2 Bft) NO 0,93 h 98 W/m² 9,6 °C 12,8 °C 14,5 km/h (3 Bft)
26.09.2025 16:00 20,8 °C 13,8 °C 60 % 75 % 1023,8 hPa 0,0 l/m² 7,6 km/h (2 Bft) NO 0,12 h 36 W/m² 9,4 °C 12,8 °C 12,9 km/h (3 Bft)
26.09.2025 17:00 20,7 °C 13,2 °C 60 % 78 % 1023,5 hPa 0,4 l/m² 6,2 km/h (2 Bft) NO 0,00 h 15 W/m² 9,5 °C 12,6 °C 11,2 km/h (2 Bft)
26.09.2025 18:00 20,7 °C 12,0 °C 60 % 83 % 1023,5 hPa 2,8 l/m² 3,8 km/h (1 Bft) N-NO 0,00 h 5 W/m² 9,2 °C 11,8 °C 6,9 km/h (2 Bft)
26.09.2025 19:00 20,6 °C 10,8 °C 60 % 88 % 1023,4 hPa 1,2 l/m² 5,7 km/h (2 Bft) O-NO 0,00 h 0 W/m² 8,9 °C 10,4 °C 10,0 km/h (2 Bft)
26.09.2025 20:00 20,6 °C 10,5 °C 60 % 90 % 1023,1 hPa 0,0 l/m² 0,9 km/h (0 Bft) O-NO 0,00 h 0 W/m² 8,9 °C 10,5 °C 2,3 km/h (1 Bft)
26.09.2025 21:00 20,7 °C 10,8 °C 61 % 90 % 1022,9 hPa 0,0 l/m² 2,4 km/h (1 Bft) O-NO 0,00 h 0 W/m² 9,3 °C 10,8 °C 4,9 km/h (1 Bft)
26.09.2025 22:00 20,9 °C 11,2 °C 62 % 89 % 1022,7 hPa 0,0 l/m² 0,8 km/h (0 Bft) O-NO 0,00 h 0 W/m² 9,4 °C 11,2 °C 1,9 km/h (1 Bft)
26.09.2025 23:00 20,8 °C 11,5 °C 62 % 89 % 1022,3 hPa 0,0 l/m² 3,0 km/h (1 Bft) O-NO 0,00 h 0 W/m² 9,6 °C 11,5 °C 5,7 km/h (2 Bft)
27.09.2025 00:00 20,7 °C 12,0 °C 62 % 87 % 1022,1 hPa 0,0 l/m² 7,2 km/h (2 Bft) O-NO 0,00 h 0 W/m² 9,9 °C 11,3 °C 13,5 km/h (3 Bft)
27.09.2025 01:00 20,7 °C 12,5 °C 63 % 86 % 1021,9 hPa 0,0 l/m² 7,1 km/h (2 Bft) O-NO 0,00 h 0 W/m² 10,2 °C 11,8 °C 12,2 km/h (2 Bft)
27.09.2025 02:00 20,7 °C 12,7 °C 63 % 86 % 1021,7 hPa 0,0 l/m² 6,5 km/h (2 Bft) O-NO 0,00 h 0 W/m² 10,4 °C 12,3 °C 11,5 km/h (2 Bft)
27.09.2025 03:00 20,7 °C 12,7 °C 62 % 86 % 1021,6 hPa 0,0 l/m² 8,2 km/h (2 Bft) O-NO 0,00 h 0 W/m² 10,4 °C 11,6 °C 13,8 km/h (3 Bft)
27.09.2025 04:00 20,7 °C 12,8 °C 62 % 85 % 1021,6 hPa 0,0 l/m² 8,8 km/h (2 Bft) O 0,00 h 0 W/m² 10,4 °C 11,4 °C 14,3 km/h (3 Bft)
27.09.2025 05:00 20,7 °C 12,8 °C 62 % 85 % 1021,5 hPa 0,0 l/m² 6,8 km/h (2 Bft) O 0,00 h 0 W/m² 10,4 °C 12,2 °C 11,3 km/h (2 Bft)
27.09.2025 06:00 20,7 °C 12,8 °C 62 % 86 % 1021,5 hPa 0,0 l/m² 5,9 km/h (2 Bft) O-NO 0,00 h 0 W/m² 10,5 °C 12,6 °C 10,3 km/h (2 Bft)
27.09.2025 07:00 20,6 °C 12,9 °C 62 % 86 % 1021,5 hPa 0,0 l/m² 5,5 km/h (2 Bft) O 0,00 h 10 W/m² 10,6 °C 12,7 °C 9,0 km/h (2 Bft)
27.09.2025 08:00 20,7 °C 13,1 °C 63 % 87 % 1021,8 hPa 0,0 l/m² 4,9 km/h (1 Bft) O 0,00 h 25 W/m² 11,0 °C 12,9 °C 8,4 km/h (2 Bft)
27.09.2025 09:00 20,7 °C 13,5 °C 63 % 86 % 1022,1 hPa 0,0 l/m² 8,5 km/h (2 Bft) O-NO 0,50 h 52 W/m² 11,3 °C 12,2 °C 13,3 km/h (3 Bft)
27.09.2025 10:00 20,7 °C 14,0 °C 63 % 86 % 1022,5 hPa 0,0 l/m² 9,5 km/h (2 Bft) O 1,00 h 96 W/m² 11,7 °C 12,4 °C 14,5 km/h (3 Bft)
27.09.2025 11:00 20,8 °C 14,7 °C 62 % 84 % 1022,7 hPa 0,0 l/m² 12,1 km/h (2 Bft) O 1,00 h 158 W/m² 12,0 °C 12,0 °C 17,1 km/h (3 Bft)
27.09.2025 12:00 20,9 °C 15,1 °C 63 % 84 % 1022,9 hPa 0,0 l/m² 9,6 km/h (2 Bft) O 0,98 h 193 W/m² 12,4 °C 13,5 °C 14,1 km/h (3 Bft)
27.09.2025 13:00 20,9 °C 16,1 °C 62 % 82 % 1022,8 hPa 0,0 l/m² 9,1 km/h (2 Bft) O 1,02 h 228 W/m² 12,9 °C 14,8 °C 14,0 km/h (3 Bft)
27.09.2025 14:00 20,8 °C 16,7 °C 62 % 79 % 1022,8 hPa 0,0 l/m² 11,6 km/h (2 Bft) O 1,00 h 193 W/m² 13,1 °C 14,4 °C 15,5 km/h (3 Bft)
27.09.2025 15:00 20,8 °C 16,7 °C 62 % 79 % 1022,6 hPa 0,0 l/m² 8,0 km/h (2 Bft) O 0,92 h 103 W/m² 13,0 °C 15,7 °C 11,4 km/h (2 Bft)
27.09.2025 16:00 20,8 °C 16,5 °C 62 % 80 % 1022,8 hPa 0,0 l/m² 4,6 km/h (1 Bft) O 0,52 h 53 W/m² 13,0 °C 16,4 °C 7,0 km/h (2 Bft)
27.09.2025 17:00 20,8 °C 16,3 °C 62 % 81 % 1022,6 hPa 0,0 l/m² 0,4 km/h (0 Bft) O 0,00 h 24 W/m² 13,0 °C 16,3 °C 1,4 km/h (1 Bft)
27.09.2025 18:00 20,8 °C 16,0 °C 62 % 83 % 1022,8 hPa 0,0 l/m² 0,6 km/h (0 Bft) O-NO 0,00 h 16 W/m² 13,1 °C 16,0 °C 1,4 km/h (1 Bft)
27.09.2025 19:00 20,7 °C 15,3 °C 62 % 85 % 1023,1 hPa 0,0 l/m² 0,0 km/h (0 Bft) O-NO 0,00 h 0 W/m² 12,8 °C 15,3 °C 0,1 km/h (0 Bft)
27.09.2025 20:00 20,7 °C 14,4 °C 62 % 86 % 1023,2 hPa 0,0 l/m² 0,0 km/h (0 Bft) O-NO 0,00 h 0 W/m² 12,2 °C 14,4 °C 0,0 km/h (0 Bft)
27.09.2025 21:00 20,7 °C 13,8 °C 62 % 88 % 1023,3 hPa 0,0 l/m² 0,0 km/h (0 Bft) O-NO 0,00 h 0 W/m² 11,9 °C 13,8 °C 0,0 km/h (0 Bft)
27.09.2025 22:00 20,7 °C 13,7 °C 62 % 89 % 1023,3 hPa 0,0 l/m² 0,0 km/h (0 Bft) O-NO 0,00 h 0 W/m² 11,9 °C 13,7 °C 0,2 km/h (0 Bft)
27.09.2025 23:00 20,7 °C 13,2 °C 62 % 90 % 1023,4 hPa 0,0 l/m² 0,0 km/h (0 Bft) O-NO 0,00 h 0 W/m² 11,6 °C 13,2 °C 0,0 km/h (0 Bft)
28.09.2025 00:00 20,7 °C 12,8 °C 62 % 90 % 1023,4 hPa 0,0 l/m² 0,1 km/h (0 Bft) O-NO 0,00 h 0 W/m² 11,2 °C 12,8 °C 0,3 km/h (0 Bft)
28.09.2025 01:00 20,7 °C 12,7 °C 62 % 91 % 1023,3 hPa 0,0 l/m² 0,0 km/h (0 Bft) O-NO 0,00 h 0 W/m² 11,3 °C 12,7 °C 0,0 km/h (0 Bft)
28.09.2025 02:00 20,7 °C 12,5 °C 62 % 91 % 1023,2 hPa 0,0 l/m² 0,2 km/h (0 Bft) NW 0,00 h 0 W/m² 11,1 °C 12,5 °C 0,8 km/h (0 Bft)
28.09.2025 03:00 20,7 °C 12,1 °C 62 % 91 % 1023,0 hPa 0,0 l/m² 0,0 km/h (0 Bft) NW 0,00 h 0 W/m² 10,6 °C 12,1 °C 0,2 km/h (0 Bft)
28.09.2025 04:00 20,7 °C 11,5 °C 62 % 91 % 1022,7 hPa 0,0 l/m² 0,0 km/h (0 Bft) NW 0,00 h 0 W/m² 10,2 °C 11,5 °C 0,2 km/h (0 Bft)
28.09.2025 05:00 20,7 °C 10,7 °C 62 % 91 % 1022,9 hPa 0,0 l/m² 0,0 km/h (0 Bft) W-NW 0,00 h 0 W/m² 9,4 °C 10,7 °C 0,1 km/h (0 Bft)
28.09.2025 06:00 20,7 °C 10,2 °C 61 % 92 % 1023,1 hPa 0,0 l/m² 0,2 km/h (0 Bft) W-NW 0,00 h 0 W/m² 8,9 °C 10,2 °C 0,4 km/h (0 Bft)
28.09.2025 07:00 20,8 °C 10,0 °C 61 % 92 % 1023,1 hPa 0,0 l/m² 0,0 km/h (0 Bft) NW 0,00 h 17 W/m² 8,8 °C 10,0 °C 0,2 km/h (0 Bft)
28.09.2025 08:00 20,7 °C 10,8 °C 61 % 93 % 1023,2 hPa 0,0 l/m² 0,0 km/h (0 Bft) SO 0,67 h 72 W/m² 9,7 °C 10,8 °C 0,0 km/h (0 Bft)
28.09.2025 09:00 20,7 °C 12,2 °C 61 % 93 % 1023,3 hPa 0,0 l/m² 1,6 km/h (1 Bft) SO 1,00 h 246 W/m² 11,1 °C 12,2 °C 2,6 km/h (1 Bft)
28.09.2025 10:00 20,8 °C 15,3 °C 61 % 85 % 1023,4 hPa 0,0 l/m² 2,1 km/h (1 Bft) O 1,00 h 437 W/m² 12,7 °C 15,3 °C 3,5 km/h (1 Bft)
28.09.2025 11:00 20,8 °C 17,9 °C 61 % 75 % 1023,4 hPa 0,0 l/m² 1,9 km/h (1 Bft) O-SO 1,00 h 447 W/m² 13,4 °C 17,9 °C 3,7 km/h (1 Bft)
28.09.2025 12:00 20,8 °C 19,1 °C 61 % 73 % 1023,1 hPa 0,0 l/m² 3,4 km/h (1 Bft) O 0,98 h 396 W/m² 14,1 °C 19,0 °C 6,4 km/h (2 Bft)
28.09.2025 13:00 20,7 °C 18,3 °C 61 % 75 % 1022,8 hPa 0,0 l/m² 2,5 km/h (1 Bft) NO 1,02 h 258 W/m² 13,9 °C 18,3 °C 4,6 km/h (1 Bft)
28.09.2025 14:00 20,8 °C 18,7 °C 62 % 73 % 1022,3 hPa 0,0 l/m² 3,3 km/h (1 Bft) O 1,00 h 297 W/m² 13,8 °C 18,7 °C 6,0 km/h (2 Bft)
28.09.2025 15:00 21,0 °C 20,5 °C 62 % 68 % 1021,7 hPa 0,0 l/m² 4,1 km/h (1 Bft) O 1,00 h 458 W/m² 14,3 °C 20,4 °C 6,4 km/h (2 Bft)
28.09.2025 16:00 20,9 °C 21,3 °C 60 % 64 % 1021,4 hPa 0,0 l/m² 3,3 km/h (1 Bft) O 1,00 h 324 W/m² 14,2 °C 21,3 °C 5,8 km/h (2 Bft)
28.09.2025 17:00 21,1 °C 21,1 °C 61 % 63 % 1021,3 hPa 0,0 l/m² 1,7 km/h (1 Bft) NO 0,58 h 117 W/m² 13,7 °C 21,1 °C 3,6 km/h (1 Bft)
28.09.2025 18:00 21,1 °C 19,8 °C 62 % 67 % 1021,5 hPa 0,0 l/m² 0,9 km/h (0 Bft) NO 0,00 h 19 W/m² 13,5 °C 19,8 °C 2,3 km/h (1 Bft)
28.09.2025 19:00 21,2 °C 17,1 °C 64 % 74 % 1021,7 hPa 0,0 l/m² 1,4 km/h (1 Bft) NO 0,00 h 0 W/m² 12,4 °C 17,1 °C 3,4 km/h (1 Bft)
28.09.2025 20:00 21,3 °C 15,3 °C 64 % 77 % 1022,0 hPa 0,0 l/m² 2,8 km/h (1 Bft) O-NO 0,00 h 0 W/m² 11,4 °C 15,3 °C 4,4 km/h (1 Bft)
28.09.2025 21:00 21,3 °C 13,5 °C 64 % 80 % 1022,4 hPa 0,0 l/m² 3,6 km/h (1 Bft) O 0,00 h 0 W/m² 10,1 °C 13,5 °C 5,2 km/h (1 Bft)
28.09.2025 22:00 21,2 °C 12,5 °C 64 % 80 % 1022,5 hPa 0,0 l/m² 0,1 km/h (0 Bft) O 0,00 h 0 W/m² 9,1 °C 12,5 °C 0,4 km/h (0 Bft)
28.09.2025 23:00 21,1 °C 11,7 °C 64 % 79 % 1022,5 hPa 0,0 l/m² 0,2 km/h (0 Bft) O 0,00 h 0 W/m² 8,3 °C 11,7 °C 0,9 km/h (0 Bft)
Min-Datum _ 25.09.25 23.09.25 25.09.25 23.09.25 22.09.25 - 28.09.25 - - - 23.09.25 25.09.25 28.09.25
_ Min-Zeit 06:00 07:17 18:01 14:53 00:28 - 23:00 - - - 07:17 12:22 23:01
Minimum _ 19,8 °C 6,2 °C 58 % 51 % 1016,7 hPa - 0,0 km/h (0 Bft) - - - 4,0 °C 1,8 °C 0,0 km/h (0 Bft)
Max-Datum _ 22.09.25 28.09.25 28.09.25 28.09.25 24.09.25 26.09.25 24.09.25 - 27.09.25 23.09.25 28.09.25 28.09.25 24.09.25
_ Max-Zeit 00:06 16:32 20:00 09:12 09:39 18:09 12:32 - 12:07 13:14 12:16 16:32 16:22
Maximum _ 22,0 °C 21,6 °C 65 % 94 % 1026,2 hPa 2,8 l/m² 29,0 km/h
NO (5 Bft)
- 0,10 h 840 W/m² 14,7 °C 21,6 °C 41,8 km/h
O-NO (6 Bft)
Durchschnitt _ 20,7 °C 12,6 °C 61 % 78 % 1022,9 hPa #9,4 l/m² 6,5 km/h (2 Bft) O-NO #57:35 h 96 W/m² 8,7 °C 11,6 °C 11,0 km/h (2 Bft)
© 2009 Mathias Hoßbach